createdAt,value
2023-05-20T00:01:50.551Z,58.97
2023-05-20T00:04:17.793Z,62.25
2023-05-20T00:06:45.358Z,59.10
2023-05-20T00:09:12.528Z,63.78
2023-05-20T00:11:39.630Z,62.38
2023-05-20T00:14:06.775Z,63.20
2023-05-20T00:16:34.078Z,62.00
2023-05-20T00:19:01.294Z,61.40
2023-05-20T00:21:28.411Z,59.83
2023-05-20T00:23:56.523Z,60.55
2023-05-20T00:26:23.652Z,66.70
2023-05-20T00:28:50.938Z,60.75
2023-05-20T00:31:18.060Z,61.25
2023-05-20T00:33:45.212Z,62.45
2023-05-20T00:36:12.340Z,70.95
2023-05-20T00:38:39.621Z,60.30
2023-05-20T00:41:06.774Z,55.92
2023-05-20T00:43:33.895Z,66.35
2023-05-20T00:46:01.252Z,60.67
2023-05-20T00:48:33.601Z,63.38
2023-05-20T00:51:01.335Z,72.57
2023-05-20T00:53:28.556Z,63.28
2023-05-20T00:55:55.682Z,62.58
2023-05-20T00:58:22.686Z,62.33
2023-05-20T01:00:49.716Z,61.63
2023-05-20T01:03:17.547Z,60.08
2023-05-20T01:05:44.728Z,63.40
2023-05-20T01:08:11.937Z,59.45
2023-05-20T01:10:42.761Z,57.63
2023-05-20T01:13:11.674Z,58.75
2023-05-20T01:15:39.279Z,54.17
2023-05-20T01:18:06.537Z,61.40
2023-05-20T01:20:33.742Z,57.60
2023-05-20T01:23:00.906Z,58.25
2023-05-20T01:25:27.996Z,57.72
2023-05-20T01:27:56.136Z,62.10
2023-05-20T01:30:23.462Z,62.65
2023-05-20T01:32:55.800Z,62.85
2023-05-20T01:35:23.055Z,61.50
2023-05-20T01:37:50.171Z,60.05
2023-05-20T01:40:17.445Z,65.80
2023-05-20T01:42:45.672Z,63.88
2023-05-20T01:45:12.841Z,60.30
2023-05-20T01:47:39.983Z,54.85
2023-05-20T01:50:10.907Z,55.45
2023-05-20T01:52:38.173Z,56.88
2023-05-20T01:55:05.638Z,61.70
2023-05-20T01:57:32.918Z,59.63
2023-05-20T02:00:00.065Z,64.60
2023-05-20T02:02:27.338Z,56.63
2023-05-20T02:04:54.636Z,54.17
2023-05-20T02:07:21.788Z,60.35
2023-05-20T02:09:48.918Z,69.82
2023-05-20T02:12:19.003Z,61.53
2023-05-20T02:14:46.907Z,60.05
2023-05-20T02:17:17.462Z,63.05
2023-05-20T02:22:12.027Z,63.88
2023-05-20T02:24:39.302Z,60.05
2023-05-20T02:27:07.094Z,61.50
2023-05-20T02:29:34.159Z,58.50
2023-05-20T02:32:01.334Z,57.65
2023-05-20T02:34:28.642Z,55.90
2023-05-20T02:36:56.693Z,49.22
2023-05-20T02:39:23.850Z,54.50
2023-05-20T02:41:50.948Z,57.20
2023-05-20T02:44:18.263Z,49.40
2023-05-20T02:46:45.319Z,53.10
2023-05-20T02:49:12.393Z,51.25
2023-05-20T02:51:41.136Z,55.50
2023-05-20T02:54:08.280Z,53.90
2023-05-20T02:56:35.426Z,57.65
2023-05-20T02:59:03.709Z,61.80
2023-05-20T03:01:30.805Z,60.70
2023-05-20T03:03:57.934Z,64.05
2023-05-20T03:06:25.050Z,56.88
2023-05-20T03:08:52.208Z,58.90
2023-05-20T03:11:19.291Z,58.78
2023-05-20T03:13:46.382Z,58.63
2023-05-20T03:16:13.732Z,58.40
2023-05-20T03:18:40.914Z,52.90
2023-05-20T03:21:08.818Z,58.42
2023-05-20T03:23:36.084Z,63.13
2023-05-20T03:26:03.511Z,62.65
2023-05-20T03:28:30.507Z,59.85
2023-05-20T03:30:57.545Z,60.35
2023-05-20T03:33:26.427Z,56.35
2023-05-20T03:35:53.541Z,53.75
2023-05-20T03:38:20.804Z,57.47
2023-05-20T03:40:47.825Z,59.53
2023-05-20T03:43:14.900Z,62.88
2023-05-20T03:45:42.079Z,70.15
2023-05-20T03:48:09.185Z,63.80
2023-05-20T03:50:36.364Z,66.75
2023-05-20T03:53:03.403Z,77.82
2023-05-20T03:55:30.473Z,67.22
2023-05-20T03:57:57.605Z,58.08
2023-05-20T04:00:24.735Z,64.03
2023-05-20T04:02:51.988Z,66.18
2023-05-20T04:05:19.607Z,61.03
2023-05-20T04:07:47.065Z,75.05
2023-05-20T04:10:14.161Z,80.18
2023-05-20T04:12:41.598Z,79.32
2023-05-20T04:15:09.713Z,71.20
2023-05-20T04:17:38.527Z,66.88
2023-05-20T04:20:07.507Z,61.88
2023-05-20T04:22:35.008Z,67.88
2023-05-20T04:25:03.873Z,65.03
2023-05-20T04:27:31.594Z,53.80
2023-05-20T04:29:59.029Z,49.58
2023-05-20T04:32:27.157Z,45.13
2023-05-20T04:34:56.314Z,46.45
2023-05-20T04:37:23.388Z,43.38
2023-05-20T04:39:51.274Z,40.65
2023-05-20T04:42:19.339Z,46.88
2023-05-20T04:44:46.795Z,45.63
2023-05-20T04:47:14.222Z,44.20
2023-05-20T04:49:41.581Z,45.65
2023-05-20T04:52:08.606Z,52.17
2023-05-20T04:54:35.750Z,50.75
2023-05-20T04:57:03.110Z,48.95
2023-05-20T04:59:30.156Z,49.97
2023-05-20T05:01:57.348Z,46.28
2023-05-20T05:04:24.409Z,45.55
2023-05-20T05:06:51.567Z,41.50
2023-05-20T05:09:18.701Z,43.88
2023-05-20T05:11:45.793Z,42.03
2023-05-20T05:14:12.860Z,45.22
2023-05-20T05:16:40.048Z,38.00
2023-05-20T05:19:07.543Z,36.22
2023-05-20T05:21:34.666Z,39.60
2023-05-20T05:24:01.761Z,39.75
2023-05-20T05:26:28.846Z,37.20
2023-05-20T05:28:57.495Z,39.88
2023-05-20T05:31:24.595Z,40.35
2023-05-20T05:33:51.653Z,39.85
2023-05-20T05:36:18.767Z,38.70
2023-05-20T05:38:45.851Z,42.42
2023-05-20T05:41:12.921Z,60.42
2023-05-20T05:43:39.922Z,58.00
2023-05-20T05:46:06.973Z,59.30
2023-05-20T05:48:34.085Z,52.35
2023-05-20T05:51:01.203Z,49.95
2023-05-20T05:53:28.322Z,46.05
2023-05-20T05:55:55.441Z,53.67
2023-05-20T05:58:22.460Z,54.72
2023-05-20T06:00:52.263Z,55.42
2023-05-20T06:03:19.431Z,55.20
2023-05-20T06:05:47.542Z,64.57
2023-05-20T06:08:14.727Z,59.58
2023-05-20T06:10:41.790Z,58.90
2023-05-20T06:13:08.809Z,60.38
2023-05-20T06:15:36.774Z,55.92
2023-05-20T06:18:04.240Z,57.33
2023-05-20T06:20:31.320Z,58.22
2023-05-20T06:22:58.412Z,55.47
2023-05-20T06:25:25.892Z,53.65
2023-05-20T06:27:53.081Z,53.67
2023-05-20T06:30:20.260Z,50.92
2023-05-20T06:32:47.514Z,48.15
2023-05-20T06:35:14.737Z,48.08
2023-05-20T06:37:41.904Z,53.35
2023-05-20T06:40:09.735Z,54.38
2023-05-20T06:42:36.778Z,53.47
2023-05-20T06:45:04.745Z,52.78
2023-05-20T06:47:31.851Z,50.60
2023-05-20T06:49:58.991Z,51.28
2023-05-20T06:52:26.104Z,47.38
2023-05-20T06:54:53.347Z,53.53
2023-05-20T06:57:20.459Z,53.25
2023-05-20T06:59:47.536Z,46.80
2023-05-20T07:02:14.825Z,46.53
2023-05-20T07:04:42.117Z,51.10
2023-05-20T07:07:09.265Z,47.28
2023-05-20T07:09:36.472Z,47.40
2023-05-20T07:12:03.901Z,47.03
2023-05-20T07:14:30.984Z,46.25
2023-05-20T07:16:58.186Z,47.22
2023-05-20T07:19:25.448Z,47.97
2023-05-20T07:21:52.716Z,50.35
2023-05-20T07:24:19.756Z,49.92
2023-05-20T07:26:47.178Z,50.03
2023-05-20T07:29:20.456Z,54.58
2023-05-20T07:31:47.794Z,52.78
2023-05-20T07:34:14.934Z,49.38
2023-05-20T07:36:42.133Z,48.25
2023-05-20T07:39:13.520Z,44.22
2023-05-20T07:41:42.306Z,48.15
2023-05-20T07:44:11.560Z,44.13
2023-05-20T07:46:39.045Z,48.00
2023-05-20T07:49:06.466Z,48.03
2023-05-20T07:51:33.576Z,45.70
2023-05-20T07:54:02.371Z,47.50
2023-05-20T07:56:30.321Z,43.88
2023-05-20T07:58:59.842Z,44.60
2023-05-20T08:01:27.962Z,49.30
2023-05-20T08:03:55.668Z,49.25
2023-05-20T08:06:25.220Z,45.45
2023-05-20T08:11:23.422Z,48.58
2023-05-20T08:13:50.971Z,46.38
2023-05-20T08:16:18.308Z,45.50
2023-05-20T08:18:45.954Z,44.20
2023-05-20T08:21:14.234Z,48.28
2023-05-20T08:23:41.575Z,49.45
2023-05-20T08:26:10.780Z,41.67
2023-05-20T08:28:39.703Z,45.95
2023-05-20T08:31:07.068Z,40.78
2023-05-20T08:33:34.246Z,44.75
2023-05-20T08:36:01.317Z,48.70
2023-05-20T08:38:28.490Z,42.95
2023-05-20T08:40:58.667Z,43.15
2023-05-20T08:43:25.870Z,43.78
2023-05-20T08:45:53.159Z,53.67
2023-05-20T08:48:20.897Z,42.15
2023-05-20T08:50:53.193Z,43.22
2023-05-20T08:53:22.886Z,44.97
2023-05-20T08:56:17.012Z,41.70
2023-05-20T08:58:44.402Z,45.22
2023-05-20T09:01:11.533Z,36.03
2023-05-20T09:03:38.781Z,39.55
2023-05-20T09:06:07.601Z,36.60
2023-05-20T09:08:34.989Z,35.97
2023-05-20T09:11:02.088Z,39.13
2023-05-20T09:13:31.093Z,40.53
2023-05-20T09:15:59.787Z,38.40
2023-05-20T09:18:27.360Z,31.17
2023-05-20T09:20:59.109Z,31.92
2023-05-20T09:23:27.827Z,32.53
2023-05-20T09:25:54.831Z,32.25
2023-05-20T09:28:25.539Z,22.35
2023-05-20T09:31:00.161Z,23.73
2023-05-20T09:33:30.623Z,26.52
2023-05-20T09:36:04.901Z,21.27
2023-05-20T09:38:38.240Z,21.42
2023-05-20T09:41:08.413Z,23.88
2023-05-20T09:43:36.593Z,20.67
2023-05-20T09:46:04.875Z,25.08
2023-05-20T09:48:34.019Z,20.27
2023-05-20T09:51:01.630Z,17.53
2023-05-20T09:53:29.111Z,17.20
2023-05-20T09:55:56.674Z,17.52
2023-05-20T09:58:24.511Z,12.38
2023-05-20T10:00:52.181Z,12.90
2023-05-20T10:03:19.402Z,12.43
2023-05-20T10:06:20.545Z,16.33
2023-05-20T10:09:10.408Z,13.48
2023-05-20T10:11:55.059Z,14.15
2023-05-20T10:14:34.635Z,14.52
2023-05-20T10:17:23.853Z,14.90
2023-05-20T10:19:51.526Z,14.07
2023-05-20T10:22:28.556Z,11.75
2023-05-20T10:25:00.270Z,12.82
2023-05-20T10:27:27.619Z,16.55
2023-05-20T10:29:56.684Z,16.10
2023-05-20T10:32:31.910Z,12.90
2023-05-20T10:35:05.161Z,11.63
2023-05-20T10:37:43.389Z,14.27
2023-05-20T10:40:11.805Z,11.95
2023-05-20T10:42:39.165Z,12.30
2023-05-20T10:45:07.647Z,13.93
2023-05-20T10:47:35.229Z,13.63
2023-05-20T10:50:05.011Z,12.30
2023-05-20T10:52:38.295Z,13.30
2023-05-20T10:55:11.937Z,16.08
2023-05-20T10:57:39.449Z,18.70
2023-05-20T11:00:11.014Z,14.63
2023-05-20T11:02:38.380Z,16.40
2023-05-20T11:05:06.677Z,15.13
2023-05-20T11:07:34.345Z,18.77
2023-05-20T11:10:01.564Z,19.00
2023-05-20T11:12:28.742Z,17.45
2023-05-20T11:14:55.934Z,17.38
2023-05-20T11:17:23.119Z,20.05
2023-05-20T11:19:51.186Z,14.52
2023-05-20T11:22:18.376Z,14.93
2023-05-20T11:24:46.740Z,12.00
2023-05-20T11:27:13.830Z,14.55
2023-05-20T11:29:40.948Z,12.40
2023-05-20T11:32:09.600Z,16.08
2023-05-20T11:34:37.517Z,18.85
2023-05-20T11:37:09.219Z,14.57
2023-05-20T11:39:36.961Z,21.30
2023-05-20T11:42:04.197Z,14.73
2023-05-20T11:44:31.393Z,15.77
2023-05-20T11:47:02.232Z,13.52
2023-05-20T11:49:29.639Z,17.17
2023-05-20T11:51:57.321Z,13.80
2023-05-20T11:54:24.834Z,11.73
2023-05-20T11:56:52.295Z,15.52
2023-05-20T11:59:19.318Z,21.63
2023-05-20T12:01:46.712Z,16.33
2023-05-20T12:04:15.132Z,15.50
2023-05-20T12:06:44.525Z,12.65
2023-05-20T12:09:12.173Z,14.98
2023-05-20T12:11:41.427Z,15.70
2023-05-20T12:14:09.122Z,14.00
2023-05-20T12:16:36.976Z,16.00
2023-05-20T12:19:04.566Z,15.05
2023-05-20T12:21:31.966Z,17.13
2023-05-20T12:24:02.487Z,16.27
2023-05-20T12:26:30.066Z,11.80
2023-05-20T12:28:57.622Z,12.45
2023-05-20T12:31:25.876Z,17.45
2023-05-20T12:33:53.357Z,12.77
2023-05-20T12:36:20.795Z,15.32
2023-05-20T12:38:47.972Z,14.95
2023-05-20T12:41:15.046Z,12.32
2023-05-20T12:43:42.093Z,12.88
2023-05-20T12:46:09.152Z,12.85
2023-05-20T12:48:37.119Z,14.02
2023-05-20T12:51:04.509Z,11.85
2023-05-20T12:53:31.660Z,15.57
2023-05-20T12:55:58.710Z,12.00
2023-05-20T12:58:25.903Z,13.18
2023-05-20T13:00:53.018Z,12.32
2023-05-20T13:03:20.221Z,11.48
2023-05-20T13:05:47.358Z,10.65
2023-05-20T13:08:15.153Z,12.98
2023-05-20T13:10:42.630Z,11.70
2023-05-20T13:13:09.723Z,12.95
2023-05-20T13:15:37.007Z,15.65
2023-05-20T13:18:06.620Z,16.80
2023-05-20T13:20:34.524Z,17.55
2023-05-20T13:23:01.996Z,18.20
2023-05-20T13:25:29.425Z,12.15
2023-05-20T13:27:56.514Z,14.00
2023-05-20T13:30:23.677Z,12.88
2023-05-20T13:32:50.738Z,18.83
2023-05-20T13:35:18.492Z,14.43
2023-05-20T13:37:45.640Z,13.18
2023-05-20T13:40:13.222Z,9.70
2023-05-20T13:42:40.428Z,13.90
2023-05-20T13:45:08.166Z,11.40
2023-05-20T13:47:35.398Z,12.25
2023-05-20T13:50:03.405Z,12.77
2023-05-20T13:52:31.291Z,10.20
2023-05-20T13:54:58.318Z,10.10
2023-05-20T13:57:25.626Z,11.35
2023-05-20T13:59:52.802Z,9.90
2023-05-20T14:02:20.141Z,11.00
2023-05-20T14:04:47.394Z,10.80
2023-05-20T14:07:14.566Z,14.43
2023-05-20T14:09:41.710Z,14.32
2023-05-20T14:12:08.896Z,11.80
2023-05-20T14:14:36.015Z,13.60
2023-05-20T14:17:03.220Z,13.98
2023-05-20T14:19:30.464Z,11.23
2023-05-20T14:21:59.262Z,12.55
2023-05-20T14:24:26.388Z,15.63
2023-05-20T14:26:53.645Z,9.70
2023-05-20T14:29:21.151Z,11.63
2023-05-20T14:31:48.374Z,13.93
2023-05-20T14:34:15.410Z,11.57
2023-05-20T14:36:42.574Z,11.90
2023-05-20T14:39:09.917Z,11.75
2023-05-20T14:41:37.001Z,9.38
2023-05-20T14:44:04.088Z,11.30
2023-05-20T14:46:31.392Z,10.88
2023-05-20T14:48:58.622Z,11.00
2023-05-20T14:51:25.837Z,12.52
2023-05-20T14:53:52.876Z,11.35
2023-05-20T14:56:20.006Z,12.32
2023-05-20T14:58:47.075Z,12.80
2023-05-20T15:01:14.277Z,12.20
2023-05-20T15:03:41.668Z,12.18
2023-05-20T15:06:08.871Z,10.80
2023-05-20T15:08:35.998Z,14.13
2023-05-20T15:11:03.147Z,15.07
2023-05-20T15:13:30.204Z,16.58
2023-05-20T15:15:57.227Z,15.07
2023-05-20T15:18:24.365Z,13.73
2023-05-20T15:20:51.594Z,16.70
2023-05-20T15:23:18.926Z,11.35
2023-05-20T15:25:46.214Z,12.10
2023-05-20T15:28:13.632Z,13.70
2023-05-20T15:30:40.889Z,11.95
2023-05-20T15:33:08.173Z,12.90
2023-05-20T15:35:35.285Z,11.07
2023-05-20T15:38:02.506Z,11.45
2023-05-20T15:40:29.574Z,11.27
2023-05-20T15:42:57.326Z,11.05
2023-05-20T15:45:24.581Z,13.80
2023-05-20T15:47:51.950Z,12.30
2023-05-20T15:50:19.220Z,11.35
2023-05-20T15:52:46.364Z,10.90
2023-05-20T15:55:13.650Z,10.73
2023-05-20T15:57:43.829Z,11.35
2023-05-20T16:00:12.026Z,11.13
2023-05-20T16:02:40.549Z,14.57
2023-05-20T16:05:09.187Z,11.73
2023-05-20T16:07:36.468Z,12.60
2023-05-20T16:10:03.804Z,13.50
2023-05-20T16:12:30.919Z,13.48
2023-05-20T16:14:58.078Z,13.18
2023-05-20T16:17:25.367Z,11.75
2023-05-20T16:19:52.492Z,13.18
2023-05-20T16:22:19.577Z,9.65
2023-05-20T16:24:46.744Z,10.90
2023-05-20T16:27:13.874Z,11.85
2023-05-20T16:29:41.318Z,13.50
2023-05-20T16:32:08.550Z,13.93
2023-05-20T16:34:35.986Z,10.98
2023-05-20T16:37:03.105Z,13.38
2023-05-20T16:39:30.178Z,12.13
2023-05-20T16:41:57.318Z,11.52
2023-05-20T16:44:24.472Z,13.80
2023-05-20T16:46:54.056Z,10.43
2023-05-20T16:49:21.827Z,10.77
2023-05-20T16:51:50.048Z,13.95
2023-05-20T16:54:17.149Z,12.23
2023-05-20T16:56:44.264Z,13.80
2023-05-20T16:59:17.389Z,11.38
2023-05-20T17:01:44.661Z,13.45
2023-05-20T17:04:11.970Z,14.48
2023-05-20T17:06:40.169Z,14.52
2023-05-20T17:09:07.639Z,11.13
2023-05-20T17:11:34.995Z,10.80
2023-05-20T17:14:02.130Z,14.23
2023-05-20T17:16:29.422Z,12.90
2023-05-20T17:19:00.660Z,13.85
2023-05-20T17:21:27.762Z,14.40
2023-05-20T17:23:54.940Z,11.07
2023-05-20T17:26:22.573Z,11.50
2023-05-20T17:28:49.872Z,14.27
2023-05-20T17:31:23.329Z,13.70
2023-05-20T17:34:06.952Z,13.13
2023-05-20T17:36:37.305Z,12.32
2023-05-20T17:39:05.098Z,13.25
2023-05-20T17:41:32.268Z,15.82
2023-05-20T17:43:59.757Z,12.65
2023-05-20T17:46:27.046Z,12.35
2023-05-20T17:48:58.623Z,10.27
2023-05-20T17:51:25.979Z,14.32
2023-05-20T17:53:53.144Z,14.15
2023-05-20T17:56:20.307Z,10.18
2023-05-20T17:58:48.353Z,15.23
2023-05-20T18:01:15.672Z,13.23
2023-05-20T18:03:44.122Z,14.25
2023-05-20T18:06:15.710Z,14.02
2023-05-20T18:08:42.925Z,14.77
2023-05-20T18:11:10.520Z,16.80
2023-05-20T18:13:37.695Z,17.27
2023-05-20T18:16:05.206Z,17.10
2023-05-20T18:18:32.461Z,13.77
2023-05-20T18:20:59.609Z,15.43
2023-05-20T18:23:26.730Z,14.85
2023-05-20T18:25:53.903Z,12.63
2023-05-20T18:28:21.079Z,17.92
2023-05-20T18:30:48.205Z,13.90
2023-05-20T18:33:15.388Z,11.93
2023-05-20T18:35:42.501Z,17.65
2023-05-20T18:38:09.621Z,17.90
2023-05-20T18:40:36.986Z,16.80
2023-05-20T18:43:04.176Z,12.40
2023-05-20T18:45:31.290Z,15.13
2023-05-20T18:48:00.104Z,13.95
2023-05-20T18:50:27.444Z,22.92
2023-05-20T18:52:54.513Z,16.17
2023-05-20T18:55:21.560Z,15.85
2023-05-20T18:57:48.676Z,16.58
2023-05-20T19:00:17.403Z,16.30
2023-05-20T19:02:44.649Z,16.70
2023-05-20T19:05:12.372Z,14.57
2023-05-20T19:07:39.563Z,15.75
2023-05-20T19:10:07.347Z,15.00
2023-05-20T19:12:34.425Z,17.63
2023-05-20T19:15:01.729Z,15.55
2023-05-20T19:17:28.914Z,17.25
2023-05-20T19:19:56.062Z,14.15
2023-05-20T19:22:23.088Z,13.38
2023-05-20T19:24:50.161Z,17.38
2023-05-20T19:27:17.343Z,16.02
2023-05-20T19:29:44.402Z,14.25
2023-05-20T19:32:11.501Z,15.88
2023-05-20T19:34:38.636Z,14.13
2023-05-20T19:37:05.893Z,15.40
2023-05-20T19:39:33.034Z,18.83
2023-05-20T19:42:02.447Z,15.48
2023-05-20T19:44:29.606Z,12.00
2023-05-20T19:46:56.685Z,16.20
2023-05-20T19:49:23.913Z,28.60
2023-05-20T19:51:51.187Z,16.00
2023-05-20T19:54:18.224Z,13.55
2023-05-20T19:56:45.330Z,20.23
2023-05-20T19:59:12.699Z,15.18
2023-05-20T20:01:39.777Z,16.05
2023-05-20T20:04:07.039Z,14.60
2023-05-20T20:06:34.305Z,17.23
2023-05-20T20:09:01.611Z,16.45
2023-05-20T20:11:28.737Z,13.48
2023-05-20T20:13:58.581Z,17.23
2023-05-20T20:16:27.082Z,16.25
2023-05-20T20:18:54.650Z,15.45
2023-05-20T20:21:22.072Z,16.48
2023-05-20T20:23:49.183Z,16.13
2023-05-20T20:26:16.370Z,16.02
2023-05-20T20:28:43.584Z,24.75
2023-05-20T20:31:10.755Z,17.60
2023-05-20T20:33:37.842Z,18.35
2023-05-20T20:36:05.180Z,21.30
2023-05-20T20:38:32.497Z,16.67
2023-05-20T20:40:59.916Z,16.00
2023-05-20T20:43:29.016Z,14.77
2023-05-20T20:45:56.876Z,17.17
2023-05-20T20:48:27.040Z,18.80
2023-05-20T20:50:54.426Z,21.85
2023-05-20T20:53:21.894Z,19.70
2023-05-20T20:55:51.490Z,20.10
2023-05-20T20:58:19.089Z,21.95
2023-05-20T21:00:48.778Z,21.65
2023-05-20T21:03:16.271Z,22.63
2023-05-20T21:05:44.589Z,21.13
2023-05-20T21:08:22.348Z,22.13
2023-05-20T21:10:52.532Z,20.30
2023-05-20T21:13:20.339Z,19.58
2023-05-20T21:15:51.227Z,21.80
2023-05-20T21:18:22.108Z,25.40
2023-05-20T21:20:56.186Z,22.48
2023-05-20T21:23:23.552Z,31.50
2023-05-20T21:25:52.845Z,23.95
2023-05-20T21:28:20.234Z,22.63
2023-05-20T21:30:47.639Z,23.02
2023-05-20T21:33:15.254Z,23.25
2023-05-20T21:35:45.498Z,23.60
2023-05-20T21:38:21.502Z,22.45
2023-05-20T21:40:48.894Z,27.13
2023-05-20T21:43:16.169Z,25.67
2023-05-20T21:45:43.699Z,26.98
2023-05-20T21:48:11.690Z,27.65
2023-05-20T21:50:39.035Z,25.33
2023-05-20T21:53:06.122Z,24.08
2023-05-20T21:55:33.512Z,28.15
2023-05-20T21:58:00.844Z,21.85
2023-05-20T22:00:28.703Z,26.80
2023-05-20T22:02:56.077Z,23.50
2023-05-20T22:05:23.618Z,28.17
2023-05-20T22:07:51.814Z,27.40
2023-05-20T22:10:22.523Z,24.98
2023-05-20T22:12:51.086Z,26.13
2023-05-20T22:15:18.586Z,26.50
2023-05-20T22:17:47.674Z,29.58
2023-05-20T22:20:17.956Z,28.55
2023-05-20T22:22:45.059Z,31.67
2023-05-20T22:25:12.781Z,28.27
2023-05-20T22:27:43.117Z,28.27
2023-05-20T22:30:11.926Z,26.92
2023-05-20T22:32:39.464Z,27.58
2023-05-20T22:35:07.487Z,29.88
2023-05-20T22:37:34.953Z,28.05
2023-05-20T22:40:02.198Z,27.77
2023-05-20T22:42:29.544Z,25.85
2023-05-20T22:44:57.091Z,24.20
2023-05-20T22:47:24.389Z,27.00
2023-05-20T22:49:51.460Z,22.95
2023-05-20T22:52:18.944Z,25.05
2023-05-20T22:54:45.987Z,23.55
2023-05-20T22:57:13.063Z,23.17
2023-05-20T22:59:40.557Z,27.70
2023-05-20T23:02:08.309Z,24.30
2023-05-20T23:04:35.483Z,29.48
2023-05-20T23:07:02.616Z,30.65
2023-05-20T23:09:29.649Z,20.60
2023-05-20T23:11:57.465Z,26.13
2023-05-20T23:14:24.625Z,22.05
2023-05-20T23:16:51.955Z,22.75
2023-05-20T23:19:19.213Z,26.27
2023-05-20T23:21:46.571Z,24.55
2023-05-20T23:24:13.952Z,22.30
2023-05-20T23:26:41.290Z,21.25
2023-05-20T23:29:08.673Z,23.90
2023-05-20T23:31:36.155Z,20.75
2023-05-20T23:34:04.131Z,20.45
2023-05-20T23:36:34.592Z,22.05
2023-05-20T23:39:04.455Z,26.10
2023-05-20T23:41:34.076Z,23.65
2023-05-20T23:44:01.925Z,26.42
2023-05-20T23:46:29.113Z,29.27
2023-05-20T23:48:56.198Z,20.80
2023-05-20T23:51:23.498Z,24.15
2023-05-20T23:53:50.892Z,24.98
2023-05-20T23:56:18.051Z,25.15
2023-05-20T23:58:45.128Z,24.10
